Time;durP1;ratioP1;P1;durP2;ratioP2;P2;SDS_P1;SDS_P2;PMS_P1;PMS_P2;Temp;Humidity;BMP_temperature;BMP_pressure;BME280_temperature;BME280_humidity;BME280_pressure;Samples;Min_cycle;Max_cycle;Signal;HPM_P1;HPM_P2
2022/08/30 00:01:01;;;;;;;11.10;5.00;;;;;;;14.17;100.00;101674.78;4942092;28;20541;-67
2022/08/30 00:01:58;;;;;;;11.27;5.00;;;;;;;14.18;100.00;101667.50;4943376;28;20093;-69
2022/08/30 00:04:26;;;;;;;8.15;4.57;;;;;;;14.25;100.00;101674.38;4943569;28;21607;-69
2022/08/30 00:06:52;;;;;;;13.82;5.55;;;;;;;14.20;100.00;101673.47;4943960;28;20129;-67
2022/08/30 00:09:17;;;;;;;9.10;5.03;;;;;;;14.14;100.00;101666.38;4943463;28;20034;-67
2022/08/30 00:11:43;;;;;;;11.90;4.85;;;;;;;14.11;100.00;101665.00;4948168;28;20072;-68
2022/08/30 00:14:11;;;;;;;10.70;4.72;;;;;;;14.07;100.00;101663.84;4942651;28;20050;-70
2022/08/30 00:16:38;;;;;;;7.28;4.45;;;;;;;14.01;100.00;101664.84;4945829;28;20046;-70
2022/08/30 00:19:04;;;;;;;10.48;4.90;;;;;;;14.02;100.00;101661.09;4973700;28;20522;-71
2022/08/30 00:21:29;;;;;;;9.32;4.85;;;;;;;14.02;100.00;101653.81;4929789;28;20778;-68
2022/08/30 00:23:55;;;;;;;10.32;4.47;;;;;;;14.05;100.00;101659.75;4910719;28;20726;-67
2022/08/30 00:26:21;;;;;;;7.53;4.53;;;;;;;14.09;100.00;101653.63;4944287;28;20866;-69
2022/08/30 00:28:49;;;;;;;7.90;4.78;;;;;;;14.17;100.00;101655.91;4946908;28;20112;-70
2022/08/30 00:31:14;;;;;;;7.80;4.45;;;;;;;14.14;100.00;101655.56;4943744;28;20046;-69
2022/08/30 00:33:42;;;;;;;7.63;4.43;;;;;;;14.16;100.00;101653.44;4942507;28;20590;-68
2022/08/30 00:36:07;;;;;;;8.80;4.82;;;;;;;14.15;100.00;101660.72;4945669;28;20053;-69
2022/08/30 00:38:33;;;;;;;10.23;5.20;;;;;;;14.18;100.00;101654.84;4941815;28;20042;-69
2022/08/30 00:40:58;;;;;;;12.68;5.25;;;;;;;14.21;100.00;101659.72;4940214;28;20797;-69
2022/08/30 00:43:34;;;;;;;8.55;5.85;;;;;;;14.25;100.00;101657.31;4939632;28;20149;-69
2022/08/30 00:46:03;;;;;;;11.35;5.57;;;;;;;14.29;100.00;101655.78;4941310;28;20126;-69
2022/08/30 00:51:52;;;;;;;9.35;5.22;;;;;;;14.25;100.00;101649.22;4894012;28;20074;-69
2022/08/30 00:54:18;;;;;;;11.05;5.22;;;;;;;14.22;100.00;101655.94;4913969;28;20035;-69
2022/08/30 00:56:45;;;;;;;9.32;5.40;;;;;;;14.24;100.00;101650.31;4912556;28;20137;-70
2022/08/30 00:59:11;;;;;;;8.52;5.25;;;;;;;14.26;100.00;101654.41;4897141;28;20039;-68
2022/08/30 01:01:37;;;;;;;10.88;5.68;;;;;;;14.22;100.00;101653.25;4909472;28;20225;-69
2022/08/30 01:04:04;;;;;;;9.55;5.57;;;;;;;14.34;100.00;101658.56;4920982;28;20039;-69
2022/08/30 01:06:32;;;;;;;11.23;5.75;;;;;;;14.31;100.00;101651.75;4897050;28;20032;-69
2022/08/30 01:08:59;;;;;;;10.00;5.88;;;;;;;14.20;100.00;101650.00;4906517;28;20035;-68
2022/08/30 01:11:25;;;;;;;8.63;6.70;;;;;;;14.21;100.00;101646.22;4914229;28;20035;-68
2022/08/30 01:13:52;;;;;;;11.40;5.90;;;;;;;14.24;100.00;101645.72;4907444;28;20046;-67
2022/08/30 01:16:18;;;;;;;12.07;5.70;;;;;;;14.24;100.00;101651.13;4886674;28;20297;-68
2022/08/30 01:18:44;;;;;;;9.38;7.00;;;;;;;14.38;100.00;101656.16;4902771;28;22278;-68
2022/08/30 01:21:28;;;;;;;10.73;7.03;;;;;;;14.28;100.00;101663.06;4921098;28;20031;-67
2022/08/30 01:23:56;;;;;;;12.75;6.88;;;;;;;14.31;100.00;101657.16;4887406;28;20073;-67
2022/08/30 01:26:21;;;;;;;14.15;7.05;;;;;;;14.31;100.00;101661.75;4889234;28;20047;-68
2022/08/30 01:28:53;;;;;;;13.23;7.95;;;;;;;14.24;100.00;101661.91;4907304;28;20727;-67
2022/08/30 01:31:21;;;;;;;11.82;6.70;;;;;;;14.25;100.00;101658.19;4905731;28;20055;-67
2022/08/30 01:33:46;;;;;;;12.95;7.30;;;;;;;14.22;100.00;101655.94;4897200;28;20039;-67
2022/08/30 01:36:13;;;;;;;9.95;7.28;;;;;;;14.19;100.00;101652.94;4905547;28;20051;-67
2022/08/30 01:38:41;;;;;;;9.85;7.13;;;;;;;14.16;100.00;101656.13;4905939;29;20051;-69
2022/08/30 01:41:14;;;;;;;13.60;8.05;;;;;;;14.14;100.00;101661.78;4915326;28;20035;-67
2022/08/30 01:43:41;;;;;;;12.88;8.55;;;;;;;14.11;100.00;101656.06;4915621;28;20072;-68
2022/08/30 01:46:09;;;;;;;13.90;8.30;;;;;;;14.10;100.00;101655.25;4922256;28;20043;-67
2022/08/30 01:48:35;;;;;;;13.15;8.50;;;;;;;14.12;100.00;101655.81;4911802;28;20042;-68
2022/08/30 01:51:02;;;;;;;13.82;9.30;;;;;;;14.11;100.00;101662.28;4921425;28;20863;-67
2022/08/30 01:53:28;;;;;;;15.45;9.93;;;;;;;14.04;100.00;101653.53;4907666;28;20625;-67
2022/08/30 01:55:53;;;;;;;16.20;10.90;;;;;;;14.09;100.00;101660.88;4901967;28;20883;-67
2022/08/30 01:58:19;;;;;;;15.20;10.60;;;;;;;14.12;100.00;101653.13;4903980;28;20957;-67
2022/08/30 02:00:44;;;;;;;16.30;10.70;;;;;;;14.15;100.00;101658.00;4902909;28;20073;-67
2022/08/30 02:03:09;;;;;;;12.82;10.48;;;;;;;14.29;100.00;101662.00;4905539;28;20039;-67
2022/08/30 02:05:35;;;;;;;15.50;11.23;;;;;;;14.57;100.00;101665.59;4905903;28;20032;-67
2022/08/30 02:08:02;;;;;;;19.58;11.38;;;;;;;14.66;100.00;101666.81;4907442;28;20793;-67
2022/08/30 02:10:29;;;;;;;13.05;9.90;;;;;;;14.69;100.00;101657.38;4906064;28;21189;-67
2022/08/30 02:12:54;;;;;;;15.88;10.43;;;;;;;14.70;100.00;101648.22;4885464;28;20031;-68
2022/08/30 02:15:20;;;;;;;13.80;10.38;;;;;;;14.57;100.00;101649.41;4907822;28;20062;-70
2022/08/30 02:17:48;;;;;;;13.35;9.90;;;;;;;14.56;100.00;101650.47;4900767;28;20031;-68
2022/08/30 02:20:13;;;;;;;13.20;9.23;;;;;;;14.49;100.00;101649.84;4903957;28;20042;-69
2022/08/30 02:22:38;;;;;;;13.43;9.80;;;;;;;14.51;100.00;101655.84;4905968;28;20043;-67
2022/08/30 02:25:05;;;;;;;14.40;9.77;;;;;;;14.49;100.00;101642.56;4901835;28;20286;-67
2022/08/30 02:27:33;;;;;;;13.57;9.93;;;;;;;14.39;100.00;101644.28;4905917;28;20665;-68
2022/08/30 02:29:58;;;;;;;14.75;9.70;;;;;;;14.44;100.00;101647.06;4887032;28;20101;-67
2022/08/30 02:32:26;;;;;;;14.63;9.68;;;;;;;14.36;100.00;101642.09;4905695;28;20032;-69
2022/08/30 02:34:54;;;;;;;14.23;9.55;;;;;;;14.26;100.00;101656.28;4904551;28;20034;-69
2022/08/30 02:37:19;;;;;;;12.02;9.32;;;;;;;14.25;100.00;101636.59;4904233;28;20095;-68
2022/08/30 02:39:47;;;;;;;13.80;9.88;;;;;;;14.26;100.00;101637.41;4914098;28;20370;-69
2022/08/30 02:42:13;;;;;;;15.05;9.93;;;;;;;14.28;100.00;101644.16;4920173;28;20038;-69
2022/08/30 02:44:41;;;;;;;13.68;9.90;;;;;;;14.31;100.00;101642.84;4899352;28;20931;-69
2022/08/30 02:47:06;;;;;;;13.77;9.98;;;;;;;14.22;100.00;101637.06;4905981;28;20146;-69
2022/08/30 02:49:31;;;;;;;16.27;10.05;;;;;;;14.14;100.00;101642.88;4903403;28;20035;-69
2022/08/30 02:51:57;;;;;;;12.70;10.20;;;;;;;14.08;100.00;101641.19;4919868;28;20152;-70
2022/08/30 02:54:23;;;;;;;14.07;10.70;;;;;;;14.03;100.00;101633.84;4907878;28;20039;-69
2022/08/30 02:56:50;;;;;;;17.08;10.63;;;;;;;14.08;100.00;101643.88;4922281;28;20796;-70
2022/08/30 02:59:16;;;;;;;15.73;9.90;;;;;;;14.00;100.00;101631.63;4922419;28;20066;-69
2022/08/30 03:01:42;;;;;;;15.70;9.93;;;;;;;13.95;100.00;101630.75;4905732;28;20034;-69
2022/08/30 03:04:13;;;;;;;16.20;10.38;;;;;;;13.97;100.00;101631.31;4923095;28;20864;-70
2022/08/30 03:06:40;;;;;;;16.13;10.23;;;;;;;13.99;100.00;101629.19;4905431;28;20042;-69
2022/08/30 03:09:05;;;;;;;12.20;9.90;;;;;;;14.00;100.00;101630.81;4922361;28;20074;-69
2022/08/30 03:11:31;;;;;;;17.15;10.00;;;;;;;14.02;100.00;101632.22;4923064;28;20110;-69
2022/08/30 03:13:56;;;;;;;13.70;10.63;;;;;;;13.98;100.00;101632.94;4906131;28;20963;-69
2022/08/30 03:16:22;;;;;;;15.18;10.75;;;;;;;13.93;100.00;101632.91;4902835;28;20043;-69
2022/08/30 03:18:47;;;;;;;13.73;10.43;;;;;;;13.96;100.00;101632.38;4885823;28;20035;-68
2022/08/30 03:21:15;;;;;;;15.27;10.20;;;;;;;13.93;100.00;101632.91;4920823;28;21119;-68
2022/08/30 03:23:46;;;;;;;16.40;11.02;;;;;;;14.04;100.00;101640.06;4923365;28;20492;-69
2022/08/30 03:26:13;;;;;;;14.43;9.88;;;;;;;13.96;100.00;101630.50;4922804;28;20041;-68
2022/08/30 03:28:40;;;;;;;15.60;10.02;;;;;;;13.99;100.00;101629.19;4923430;28;20038;-68
2022/08/30 03:31:07;;;;;;;13.80;10.48;;;;;;;14.06;100.00;101635.22;4921825;28;20037;-68
2022/08/30 03:33:32;;;;;;;22.02;11.50;;;;;;;13.99;100.00;101621.09;4920724;28;20034;-68
2022/08/30 03:36:00;;;;;;;15.20;10.38;;;;;;;13.96;100.00;101627.00;4924040;28;20154;-69
2022/08/30 03:38:26;;;;;;;12.57;10.00;;;;;;;13.92;100.00;101631.22;4920633;28;20066;-69
2022/08/30 03:40:53;;;;;;;12.45;9.90;;;;;;;13.87;100.00;101628.47;4886150;28;20482;-69
2022/08/30 03:43:22;;;;;;;14.40;9.73;;;;;;;13.84;100.00;101631.66;4921015;28;20141;-69
2022/08/30 03:45:47;;;;;;;13.10;10.23;;;;;;;13.82;100.00;101629.22;4920829;28;20042;-68
2022/08/30 03:48:12;;;;;;;13.50;10.43;;;;;;;13.85;100.00;101625.22;4900728;28;20054;-69
2022/08/30 03:50:39;;;;;;;17.08;10.77;;;;;;;13.81;100.00;101624.88;4920792;28;20081;-69
2022/08/30 03:53:04;;;;;;;16.92;10.65;;;;;;;13.81;100.00;101629.47;4922334;28;20046;-69
2022/08/30 03:55:32;;;;;;;15.95;10.55;;;;;;;13.83;100.00;101622.75;4905507;28;20169;-68
2022/08/30 03:57:58;;;;;;;15.25;10.45;;;;;;;13.75;100.00;101626.69;4922379;28;20097;-69
2022/08/30 04:00:23;;;;;;;17.10;10.75;;;;;;;13.72;100.00;101624.47;4868114;28;20049;-69
2022/08/30 04:02:49;;;;;;;15.90;10.85;;;;;;;13.71;100.00;101624.72;4922883;28;20035;-69
2022/08/30 04:05:14;;;;;;;16.17;10.40;;;;;;;13.74;100.00;101633.13;4922063;28;20043;-69
2022/08/30 04:07:42;;;;;;;16.15;10.93;;;;;;;13.73;100.00;101628.81;4907411;28;20039;-69
2022/08/30 04:10:08;;;;;;;15.40;11.35;;;;;;;13.72;100.00;101640.66;4907469;28;20773;-69
2022/08/30 04:12:36;;;;;;;16.52;11.02;;;;;;;13.84;100.00;101631.66;4907732;28;20150;-69
2022/08/30 04:15:03;;;;;;;18.05;11.35;;;;;;;13.92;100.00;101633.94;4905399;28;20042;-68
2022/08/30 04:17:31;;;;;;;13.38;10.63;;;;;;;13.90;100.00;101636.88;4924763;28;20130;-69
2022/08/30 04:19:59;;;;;;;17.63;11.52;;;;;;;13.89;100.00;101631.75;4922277;28;20511;-69
2022/08/30 04:22:24;;;;;;;19.60;11.95;;;;;;;13.96;100.00;101645.88;4901412;28;20049;-68
2022/08/30 04:24:49;;;;;;;16.02;11.63;;;;;;;13.99;100.00;101639.97;4923308;28;20035;-67
2022/08/30 04:27:18;;;;;;;16.40;11.90;;;;;;;13.94;100.00;101629.94;4906465;28;20273;-67
2022/08/30 04:29:44;;;;;;;15.35;11.40;;;;;;;13.95;100.00;101636.97;4922597;28;20758;-69
2022/08/30 04:32:10;;;;;;;16.52;12.20;;;;;;;13.95;100.00;101645.06;4906442;28;20114;-69
2022/08/30 04:34:35;;;;;;;20.13;12.52;;;;;;;13.88;100.00;101639.00;4922780;28;20110;-67
2022/08/30 04:37:04;;;;;;;17.38;11.40;;;;;;;13.88;100.00;101646.28;4923000;28;20074;-68
2022/08/30 04:39:29;;;;;;;15.13;11.43;;;;;;;13.86;100.00;101643.03;4906564;28;20046;-68
2022/08/30 04:41:56;;;;;;;14.15;10.82;;;;;;;13.86;100.00;101651.13;4926557;28;20042;-68
2022/08/30 04:44:22;;;;;;;18.88;10.50;;;;;;;13.82;100.00;101658.88;4927407;28;20031;-69
2022/08/30 04:46:50;;;;;;;12.82;10.07;;;;;;;13.79;100.00;101653.19;4926125;28;20109;-68
2022/08/30 04:49:15;;;;;;;14.57;10.55;;;;;;;13.72;100.00;101650.63;4925925;28;20027;-68
2022/08/30 04:51:41;;;;;;;14.68;11.10;;;;;;;13.69;100.00;101653.84;4927423;28;20062;-69
2022/08/30 04:54:06;;;;;;;18.42;11.20;;;;;;;13.64;100.00;101651.88;4926528;28;20045;-68
2022/08/30 04:56:32;;;;;;;17.45;11.70;;;;;;;13.69;100.00;101654.66;4878670;28;20047;-68
2022/08/30 04:58:57;;;;;;;15.85;11.75;;;;;;;13.73;100.00;101666.56;4926153;28;20156;-70
2022/08/30 05:01:28;;;;;;;16.30;12.55;;;;;;;13.69;100.00;101660.03;4927992;28;20374;-70
2022/08/30 05:03:54;;;;;;;16.40;12.65;;;;;;;13.74;100.00;101660.09;4906506;28;20495;-68
2022/08/30 05:06:23;;;;;;;15.50;11.77;;;;;;;13.73;100.00;101661.19;4918677;28;20038;-69
2022/08/30 05:08:48;;;;;;;17.85;11.93;;;;;;;13.73;100.00;101661.19;4907615;28;20039;-69
2022/08/30 05:11:17;;;;;;;18.63;13.23;;;;;;;13.70;100.00;101661.69;4906753;28;20152;-69
2022/08/30 05:13:43;;;;;;;18.48;13.65;;;;;;;13.71;100.00;101660.59;4925661;28;20038;-69
2022/08/30 05:16:09;;;;;;;19.05;13.65;;;;;;;13.88;100.00;101665.19;4924139;28;20678;-68
2022/08/30 05:18:35;;;;;;;19.10;14.73;;;;;;;13.90;100.00;101668.44;4902747;28;20042;-69
2022/08/30 05:21:12;;;;;;;23.20;15.50;;;;;;;13.93;100.00;101667.97;4923105;28;20046;-69
2022/08/30 05:23:42;;;;;;;20.48;15.52;;;;;;;13.96;100.00;101673.66;4906383;28;20893;-69
2022/08/30 05:26:17;;;;;;;23.17;17.55;;;;;;;14.01;100.00;101675.63;4907518;28;20078;-70
2022/08/30 05:28:43;;;;;;;20.88;17.65;;;;;;;14.06;100.00;101675.69;4925399;28;20042;-69
2022/08/30 05:31:18;;;;;;;23.52;17.10;;;;;;;14.14;100.00;101675.28;4924858;28;20213;-69
2022/08/30 05:33:44;;;;;;;23.38;16.90;;;;;;;14.21;100.00;101673.22;4923682;28;20039;-69
2022/08/30 05:36:11;;;;;;;19.48;16.65;;;;;;;14.20;100.00;101671.59;4908798;28;22351;-69
2022/08/30 05:38:38;;;;;;;19.48;15.93;;;;;;;14.23;100.00;101676.47;4908857;28;20034;-69
2022/08/30 05:41:05;;;;;;;18.58;14.75;;;;;;;14.20;100.00;101682.38;4925464;28;20043;-69
2022/08/30 05:43:36;;;;;;;17.98;15.23;;;;;;;14.32;100.00;101674.16;4924143;28;20066;-69
2022/08/30 05:46:09;;;;;;;17.92;14.27;;;;;;;14.43;100.00;101672.44;4905839;28;20031;-70
2022/08/30 05:48:38;;;;;;;15.65;13.63;;;;;;;14.60;100.00;101670.53;4922644;28;20034;-67
2022/08/30 05:51:13;;;;;;;18.13;12.60;;;;;;;14.62;100.00;101662.97;4902379;28;20087;-67
2022/08/30 05:53:40;;;;;;;17.50;13.00;;;;;;;14.74;100.00;101668.25;4886651;28;20035;-68
2022/08/30 05:56:08;;;;;;;15.75;11.95;;;;;;;14.68;100.00;101666.56;4905272;28;20950;-70
2022/08/30 05:58:34;;;;;;;15.32;12.02;;;;;;;14.78;100.00;101669.38;4923948;28;21090;-70
2022/08/30 06:01:00;;;;;;;14.95;12.15;;;;;;;14.78;100.00;101663.97;4904119;28;20039;-69
2022/08/30 06:03:25;;;;;;;13.30;10.82;;;;;;;14.79;100.00;101669.13;4922329;28;20480;-67
2022/08/30 06:05:51;;;;;;;13.07;10.73;;;;;;;14.91;100.00;101660.09;4906610;28;20031;-67
2022/08/30 06:08:19;;;;;;;16.50;11.00;;;;;;;15.00;100.00;101664.78;4923024;28;20031;-68
2022/08/30 06:10:44;;;;;;;15.50;10.45;;;;;;;14.88;100.00;101666.78;4921647;28;20035;-67
2022/08/30 06:13:10;;;;;;;18.65;9.35;;;;;;;14.92;100.00;101672.53;4904418;28;20195;-67
2022/08/30 06:15:36;;;;;;;12.48;9.05;;;;;;;14.92;100.00;101665.22;4895980;28;20049;-67
2022/08/30 06:18:02;;;;;;;12.30;8.95;;;;;;;15.08;100.00;101667.03;4918040;28;20035;-67
2022/08/30 06:20:28;;;;;;;13.82;9.65;;;;;;;15.14;100.00;101662.47;4921114;28;22161;-69
2022/08/30 06:23:00;;;;;;;14.43;10.88;;;;;;;15.09;100.00;101657.03;4921363;28;22295;-69
2022/08/30 06:25:28;;;;;;;14.75;9.52;;;;;;;15.26;100.00;101655.03;4905704;28;20045;-66
2022/08/30 06:27:53;;;;;;;12.88;9.68;;;;;;;15.35;100.00;101656.19;4924513;28;20478;-67
2022/08/30 06:30:19;;;;;;;13.10;9.15;;;;;;;15.42;100.00;101651.38;4923046;28;20484;-64
2022/08/30 06:32:44;;;;;;;14.75;10.32;;;;;;;15.53;100.00;101651.47;4906135;28;20035;-65
2022/08/30 06:35:10;;;;;;;13.52;8.77;;;;;;;15.50;100.00;101651.97;4920430;28;20580;-65
2022/08/30 06:37:35;;;;;;;14.35;8.60;;;;;;;15.58;100.00;101641.50;4922475;28;20393;-67
2022/08/30 06:40:04;;;;;;;11.60;8.10;;;;;;;15.66;100.00;101641.06;4922459;28;20047;-65
2022/08/30 06:42:31;;;;;;;8.90;6.97;;;;;;;15.73;100.00;101643.53;4905673;28;20037;-66
2022/08/30 06:44:58;;;;;;;9.82;7.43;;;;;;;15.76;100.00;101634.91;4922499;28;20066;-67
2022/08/30 06:47:26;;;;;;;9.68;7.30;;;;;;;15.84;100.00;101639.81;4922052;28;20493;-68
2022/08/30 06:49:51;;;;;;;11.63;6.20;;;;;;;16.09;100.00;101649.19;4922176;28;20072;-68
2022/08/30 06:52:17;;;;;;;13.63;6.90;;;;;;;16.08;100.00;101639.44;4910026;28;20161;-68
2022/08/30 06:54:47;;;;;;;8.82;5.80;;;;;;;16.24;100.00;101646.56;4922887;28;20606;-68
2022/08/30 06:57:13;;;;;;;10.48;5.93;;;;;;;16.51;100.00;101652.63;4921583;28;20275;-66
2022/08/30 06:59:43;;;;;;;8.85;5.82;;;;;;;16.69;100.00;101645.94;4900427;28;20031;-68
2022/08/30 07:02:08;;;;;;;8.80;5.18;;;;;;;17.26;100.00;101636.03;4904011;28;20038;-67
2022/08/30 07:04:34;;;;;;;6.28;4.75;;;;;;;18.11;100.00;101642.50;4905770;28;20061;-67
2022/08/30 07:06:59;;;;;;;8.73;4.45;;;;;;;18.94;100.00;101658.22;4922152;28;20516;-68
2022/08/30 07:09:25;;;;;;;7.75;4.32;;;;;;;19.50;100.00;101682.31;4923109;28;20066;-67
2022/08/30 07:11:51;;;;;;;5.47;3.60;;;;;;;20.26;100.00;101696.34;4907782;28;20440;-67
2022/08/30 07:14:16;;;;;;;6.32;3.72;;;;;;;20.57;100.00;101746.72;4899830;28;20490;-67
2022/08/30 07:16:44;;;;;;;8.55;3.40;;;;;;;20.72;100.00;101792.09;4927012;28;20054;-71
2022/08/30 07:19:10;;;;;;;7.35;3.40;;;;;;;21.12;100.00;101803.63;4892695;28;20042;-68
2022/08/30 07:21:43;;;;;;;6.97;2.90;;;;;;;21.26;100.00;101802.63;4912706;28;20408;-69
2022/08/30 07:24:10;;;;;;;3.70;2.50;;;;;;;21.38;100.00;101820.50;4910376;28;20150;-69
2022/08/30 07:26:40;;;;;;;3.33;2.13;;;;;;;21.40;100.00;101830.03;4926268;28;20771;-70
2022/08/30 07:29:07;;;;;;;6.27;2.77;;;;;;;21.73;100.00;101839.13;4928529;28;24548;-68
2022/08/30 07:31:34;;;;;;;5.32;2.42;;;;;;;21.82;100.00;101847.44;4925241;28;20074;-68
2022/08/30 07:34:09;;;;;;;4.22;1.90;;;;;;;21.73;100.00;101865.63;4924386;28;20138;-70
2022/08/30 07:36:38;;;;;;;4.80;2.10;;;;;;;21.68;100.00;101874.72;4908371;28;20867;-68
2022/08/30 07:39:05;;;;;;;3.92;1.80;;;;;;;21.78;100.00;101880.03;4913283;28;20038;-70
2022/08/30 07:41:34;;;;;;;3.88;1.67;;;;;;;22.12;100.00;101883.66;4907108;28;20041;-67
2022/08/30 07:44:02;;;;;;;3.88;1.60;;;;;;;22.05;100.00;101881.25;4928010;28;20063;-67
2022/08/30 07:46:27;;;;;;;5.22;1.40;;;;;;;22.20;100.00;101896.66;4932766;28;20030;-68
2022/08/30 07:48:55;;;;;;;3.53;1.42;;;;;;;22.39;100.00;101902.88;4929971;28;20097;-70
2022/08/30 07:51:23;;;;;;;5.47;1.55;;;;;;;22.35;100.00;101904.63;4922715;28;20043;-67
2022/08/30 07:53:49;;;;;;;5.50;1.30;;;;;;;22.26;100.00;101907.22;4905374;28;20036;-67
2022/08/30 07:56:15;;;;;;;3.10;1.30;;;;;;;22.24;100.00;101908.63;4904797;28;20047;-66
2022/08/30 07:58:41;;;;;;;3.75;1.30;;;;;;;22.49;100.00;101908.22;4903339;28;21986;-70
2022/08/30 08:01:08;;;;;;;3.05;1.25;;;;;;;22.69;100.00;101903.50;4915493;28;20146;-69
2022/08/30 08:03:35;;;;;;;2.90;1.25;;;;;;;22.47;100.00;101906.88;4904176;28;20432;-68
2022/08/30 08:06:03;;;;;;;6.55;1.70;;;;;;;22.71;100.00;101909.47;4916864;28;20345;-69
2022/08/30 08:08:29;;;;;;;3.28;1.13;;;;;;;22.90;100.00;101910.25;4902826;28;20027;-68
2022/08/30 08:10:54;;;;;;;3.47;1.27;;;;;;;22.58;100.00;101909.16;4901989;28;20244;-69
2022/08/30 08:13:20;;;;;;;2.25;1.10;;;;;;;22.89;100.00;101916.84;4924896;28;20540;-68
2022/08/30 08:15:45;;;;;;;3.70;1.13;;;;;;;22.69;100.00;101915.25;4911531;28;20094;-69
2022/08/30 08:18:11;;;;;;;4.50;1.42;;;;;;;22.79;100.00;101919.72;4909756;28;20039;-68
2022/08/30 08:20:36;;;;;;;4.45;1.00;;;;;;;22.54;100.00;101924.53;4909546;28;20480;-68
2022/08/30 08:23:02;;;;;;;2.40;1.20;;;;;;;22.54;100.00;101926.44;4923920;28;20047;-68
2022/08/30 08:25:30;;;;;;;4.35;1.23;;;;;;;22.53;100.00;101925.63;4909687;28;20047;-68
2022/08/30 08:27:56;;;;;;;4.60;1.02;;;;;;;22.67;100.00;101915.56;4907654;28;20043;-68
2022/08/30 08:30:22;;;;;;;2.80;1.10;;;;;;;22.84;100.00;101914.97;4904192;28;20036;-69
2022/08/30 08:32:50;;;;;;;3.92;1.10;;;;;;;22.79;100.00;101914.25;4891035;28;20122;-68
2022/08/30 08:35:21;;;;;;;5.20;1.10;;;;;;;22.34;100.00;101922.13;4910928;28;20787;-69
2022/08/30 08:37:47;;;;;;;3.15;1.38;;;;;;;22.74;100.00;101914.34;4908946;28;20470;-68
2022/08/30 08:40:17;;;;;;;6.05;1.40;;;;;;;22.87;100.00;101913.56;4905664;28;20122;-73
2022/08/30 08:43:02;;;;;;;4.57;1.35;;;;;;;22.84;100.00;101916.91;4903938;28;20123;-73
2022/08/30 08:45:54;;;;;;;3.55;1.17;;;;;;;23.08;100.00;101923.03;4895859;28;20472;-72
2022/08/30 08:48:27;;;;;;;3.05;1.25;;;;;;;22.94;100.00;101925.75;4903759;28;20159;-73
2022/08/30 08:53:38;;;;;;;3.35;1.08;;;;;;;23.26;100.00;101923.25;4904950;28;20447;-74
2022/08/30 08:56:06;;;;;;;2.55;1.10;;;;;;;23.34;100.00;101926.09;4922224;28;20138;-72
2022/08/30 08:58:45;;;;;;;2.42;1.10;;;;;;;23.17;100.00;101934.91;4921245;28;20042;-73
2022/08/30 09:01:12;;;;;;;4.45;1.10;;;;;;;23.33;100.00;101940.09;4902322;28;20559;-72
2022/08/30 09:03:40;;;;;;;4.20;1.10;;;;;;;22.41;100.00;101930.78;4903201;28;20042;-72
2022/08/30 09:06:19;;;;;;;3.00;1.00;;;;;;;22.48;100.00;101925.75;4903830;28;20486;-72
2022/08/30 09:08:44;;;;;;;5.07;1.20;;;;;;;23.15;100.00;101922.66;4906139;28;20039;-71
2022/08/30 09:11:16;;;;;;;4.03;1.20;;;;;;;23.13;100.00;101922.94;4924999;28;22974;-72
2022/08/30 09:13:41;;;;;;;3.60;1.10;;;;;;;23.58;100.00;101922.31;4922941;28;20042;-73
2022/08/30 09:16:07;;;;;;;4.43;1.08;;;;;;;23.66;100.00;101927.09;4925222;28;20690;-76
2022/08/30 09:18:44;;;;;;;4.68;1.30;;;;;;;-145.67;100.00;66521.78;4923573;28;20031;-75
2022/08/30 09:21:10;;;;;;;3.58;1.15;;;;;;;23.18;100.00;101932.97;4920702;28;20522;-71
2022/08/30 09:23:48;;;;;;;5.05;1.20;;;;;;;22.92;100.00;101933.47;4920840;28;20045;-76
2022/08/30 09:26:16;;;;;;;5.53;1.55;;;;;;;22.48;100.00;101947.63;4924093;28;20677;-71
2022/08/30 09:28:50;;;;;;;2.90;1.58;;;;;;;22.59;100.00;101927.19;4907294;28;20499;-71
2022/08/30 09:31:23;;;;;;;4.28;1.42;;;;;;;22.78;100.00;101937.25;4924366;28;20087;-71
2022/08/30 09:34:02;;;;;;;5.47;1.40;;;;;;;22.72;100.00;101935.72;4902142;28;20398;-72
2022/08/30 09:36:48;;;;;;;5.03;1.38;;;;;;;22.51;100.00;101944.28;4924942;28;20173;-72
2022/08/30 09:39:36;;;;;;;3.70;1.20;;;;;;;22.33;100.00;101942.38;4928097;28;20042;-70
2022/08/30 09:42:19;;;;;;;4.68;1.20;;;;;;;22.32;100.00;101943.50;4908721;28;20638;-71
2022/08/30 09:44:46;;;;;;;3.45;1.25;;;;;;;22.08;100.00;101933.47;4925498;28;20034;-71
2022/08/30 09:47:27;;;;;;;2.40;1.40;;;;;;;21.84;100.00;101932.69;4906657;28;20694;-69
2022/08/30 09:50:13;;;;;;;2.15;1.15;;;;;;;21.94;100.00;101938.00;4927999;28;20066;-69
2022/08/30 09:52:54;;;;;;;2.72;1.50;;;;;;;21.93;100.00;101930.09;4913553;28;20094;-69
2022/08/30 09:55:56;;;;;;;4.63;1.40;;;;;;;21.89;100.00;101918.94;4891204;28;20135;-72
2022/08/30 09:58:52;;;;;;;3.03;1.40;;;;;;;22.17;100.00;101930.06;4913546;28;20039;-70
2022/08/30 10:01:23;;;;;;;5.53;1.38;;;;;;;22.10;100.00;101927.69;4925085;28;20150;-68
2022/08/30 10:03:56;;;;;;;4.53;1.25;;;;;;;-145.67;100.00;66521.78;4926712;28;20066;-69
2022/08/30 10:06:43;;;;;;;3.85;1.33;;;;;;;-145.67;100.00;66521.78;4904547;28;20106;-72
2022/08/30 10:09:35;;;;;;;4.90;1.50;;;;;;;-145.67;100.00;66521.78;4924501;28;20035;-74
2022/08/30 10:12:06;;;;;;;3.88;1.23;;;;;;;-145.67;100.00;66521.78;4924321;28;20219;-69
2022/08/30 10:14:40;;;;;;;3.40;1.40;;;;;;;-145.67;100.00;66521.78;4927366;28;20071;-69
2022/08/30 10:17:22;;;;;;;6.38;1.30;;;;;;;-145.67;100.00;66521.78;4925458;28;20054;-74
2022/08/30 10:20:09;;;;;;;5.25;1.35;;;;;;;-145.67;100.00;66521.78;4923840;28;20157;-73
2022/08/30 10:22:49;;;;;;;2.08;1.08;;;;;;;-145.67;100.00;66521.78;4911046;28;20043;-74
2022/08/30 10:25:25;;;;;;;5.13;1.17;;;;;;;-145.67;100.00;66521.78;4926864;28;20042;-73
2022/08/30 10:27:57;;;;;;;3.95;1.38;;;;;;;-145.67;100.00;66521.78;4907634;28;20096;-73
2022/08/30 10:30:30;;;;;;;2.97;1.40;;;;;;;-145.67;100.00;66521.78;4926437;28;20815;-72
2022/08/30 10:33:07;;;;;;;3.97;1.50;;;;;;;-145.67;100.00;66521.78;4906835;28;20794;-76
2022/08/30 10:35:39;;;;;;;2.78;1.30;;;;;;;-145.67;100.00;66521.78;4911621;28;20093;-72
2022/08/30 10:38:23;;;;;;;3.45;1.58;;;;;;;-145.67;100.00;66521.78;4908340;28;20031;-73
2022/08/30 10:41:13;;;;;;;3.28;1.40;;;;;;;-145.67;100.00;66521.78;4923479;28;20035;-72
2022/08/30 10:44:06;;;;;;;3.42;1.50;;;;;;;-145.67;100.00;66521.78;4926575;28;20031;-72
2022/08/30 10:47:09;;;;;;;4.00;1.45;;;;;;;-145.67;100.00;66521.78;4925802;28;20035;-72
2022/08/30 10:49:39;;;;;;;3.10;1.33;;;;;;;-145.67;100.00;66521.78;4907438;28;20059;-70
2022/08/30 10:52:10;;;;;;;3.38;1.27;;;;;;;-145.67;100.00;66521.78;4927655;28;20066;-71
2022/08/30 10:54:43;;;;;;;4.90;1.60;;;;;;;-145.67;100.00;66521.78;4927022;28;20705;-72
2022/08/30 10:57:09;;;;;;;3.78;1.58;;;;;;;-145.67;100.00;66521.78;4926732;28;20054;-72
2022/08/30 10:59:37;;;;;;;5.82;1.50;;;;;;;-145.67;100.00;66521.78;4910596;28;20097;-70
2022/08/30 11:02:37;;;;;;;5.85;1.65;;;;;;;-145.67;100.00;66521.78;4910142;28;20062;-71
2022/08/30 11:05:33;;;;;;;3.72;1.80;;;;;;;-145.67;100.00;66521.78;4930786;28;20581;-70
2022/08/30 11:08:22;;;;;;;9.40;1.70;;;;;;;-145.67;100.00;66521.78;4930008;28;20031;-70
2022/08/30 11:11:10;;;;;;;2.88;1.75;;;;;;;-145.67;100.00;66521.78;4904955;28;20034;-72
2022/08/30 11:13:37;;;;;;;4.03;1.63;;;;;;;-145.67;100.00;66521.78;4925567;28;20089;-72
2022/08/30 11:16:06;;;;;;;5.20;1.98;;;;;;;-145.67;100.00;66521.78;4930550;28;20185;-71
2022/08/30 11:18:53;;;;;;;5.97;1.60;;;;;;;-145.67;100.00;66521.78;4931816;28;20969;-72
2022/08/30 11:21:32;;;;;;;6.80;1.60;;;;;;;-145.67;100.00;66521.78;4929941;28;20254;-70
2022/08/30 11:24:00;;;;;;;6.63;1.60;;;;;;;-145.67;100.00;66521.78;4908681;28;20035;-73